Terminal Aerodrome Forecast
Issued by NWS Cleveland, OH

Home | Current Version | Previous Version | Text Only | Print | Product List | Glossary Off
Versions: 1 2 3 4 5 6 7 8 9 10 11 12 13 14 15 16 17 18 19 20 21 22 23 24 25 26 27 28 29 30 31 32 33 34 35 36

000
FTUS41 KCLE 200700 AAA
TAFYNG
TAF AMD
KYNG 200742Z 2008/2106 VRB04KT 6SM BR VCTS SCT015 OVC035CB
      TEMPO 2008/2010 3SM -TSRA BR BKN004 OVC025CB
     FM201000 19006KT 4SM BR SCT004 BKN015
      TEMPO 2010/2013 1 1/2SM BR OVC004
     FM201500 22008KT P6SM BKN025
     FM201800 24009KT P6SM VCTS BKN035CB OVC150
     FM210100 24005KT P6SM BKN040 BKN150=

USA.gov is the U.S. government's official web portal to all federal, state and local government web resources and services.